Date,TemperatureHighF,TemperatureAvgF,TemperatureLowF,DewpointHighF,DewpointAvgF,DewpointLowF,HumidityHigh,HumidityAvg,HumidityLow,PressureMaxIn,PressureMinIn,WindSpeedMaxMPH,WindSpeedAvgMPH,GustSpeedMaxMPH,PrecipitationSumIn
2013-8-1,85,71,65,83,70,64,98,97,81,29.94,29.68,8,2,0,0.47
2013-8-2,80,70,64,79,70,63,98,98,98,29.74,29.69,11,4,0,0.00
2013-8-3,76,67,61,76,66,61,98,98,98,29.77,29.68,10,4,0,0.02
2013-8-4,72,66,60,72,65,59,98,98,88,29.91,29.74,13,5,0,0.01
2013-8-5,74,61,53,64,55,51,98,84,50,29.99,29.90,12,4,0,0.00
2013-8-6,84,70,54,77,63,54,98,83,46,30.04,29.96,6,2,0,0.00
2013-8-7,86,72,57,78,69,57,98,91,64,30.03,29.86,9,3,0,0.05
2013-8-8,85,76,69,84,75,68,98,97,81,29.90,29.82,11,3,0,0.00
2013-8-9,82,74,67,82,73,66,98,98,98,29.87,29.69,7,2,0,0.31
2013-8-10,74,67,62,70,62,55,98,83,55,29.95,29.70,15,5,0,0.00
2013-8-11,79,68,56,74,64,56,98,86,58,29.99,29.90,10,3,0,0.00
2013-8-12,81,71,59,75,67,59,98,87,61,29.92,29.81,12,3,0,0.00
2013-8-13,80,68,61,80,67,60,98,98,98,29.81,29.60,7,2,0,0.44
2013-8-14,69,63,58,66,61,57,98,94,70,29.88,29.62,11,4,0,0.28
2013-8-15,77,66,55,72,63,54,98,90,67,29.98,29.88,9,4,0,0.00
2013-8-16,78,67,59,75,65,58,98,95,74,30.17,29.98,7,3,0,0.00
2013-8-17,79,67,54,70,62,53,98,85,62,30.27,30.17,8,2,0,0.00
2013-8-18,84,70,55,77,65,54,98,86,49,30.21,29.99,7,2,0,0.00
2013-8-19,83,73,63,79,70,62,98,92,70,29.99,29.89,12,4,0,0.00
2013-8-20,86,75,66,82,74,65,98,96,84,30.00,29.91,9,3,0,0.00
2013-8-21,86,77,68,86,77,67,98,98,95,30.04,29.87,10,4,0,0.00
2013-8-22,76,72,64,75,71,64,98,98,98,29.89,29.75,8,3,0,0.45
2013-8-23,78,67,58,67,61,57,98,85,55,30.15,29.84,8,3,0,0.00
2013-8-24,80,64,50,74,60,49,98,87,53,30.30,30.15,9,2,0,0.00
2013-8-25,80,67,53,75,64,52,98,91,62,30.30,30.02,7,2,0,0.04
2013-8-26,78,70,63,77,69,62,98,98,98,30.03,29.81,9,2,0,0.20
2013-8-27,83,74,68,82,73,67,98,98,98,29.86,29.81,10,2,0,0.00
2013-8-28,89,76,67,88,75,66,98,98,98,29.94,29.81,6,2,0,0.00
2013-8-29,80,70,62,79,70,61,98,98,98,30.02,29.93,6,2,0,0.00
2013-8-30,82,71,59,81,70,58,98,98,98,29.96,29.69,11,2,0,0.83
2013-8-31,79,74,67,78,73,67,98,98,98,29.76,29.68,5,1,0,0.01